createdAt,value
2022-10-17T00:00:48.977Z,20.50
2022-10-17T00:03:15.836Z,19.60
2022-10-17T00:05:44.626Z,22.98
2022-10-17T00:08:12.946Z,19.55
2022-10-17T00:10:40.682Z,19.38
2022-10-17T00:13:07.992Z,20.75
2022-10-17T00:15:35.399Z,17.80
2022-10-17T00:18:02.322Z,20.17
2022-10-17T00:20:30.495Z,19.67
2022-10-17T00:22:57.882Z,18.35
2022-10-17T00:25:25.045Z,17.20
2022-10-17T00:27:51.796Z,19.90
2022-10-17T00:30:18.589Z,18.13
2022-10-17T00:32:45.858Z,17.38
2022-10-17T00:35:12.699Z,21.35
2022-10-17T00:37:39.438Z,18.60
2022-10-17T00:40:07.386Z,16.85
2022-10-17T00:42:34.296Z,17.38
2022-10-17T00:45:08.137Z,16.58
2022-10-17T00:47:36.104Z,17.30
2022-10-17T00:50:05.607Z,17.50
2022-10-17T00:52:32.975Z,16.50
2022-10-17T00:55:31.739Z,16.20
2022-10-17T00:58:00.760Z,17.83
2022-10-17T01:00:27.659Z,15.65
2022-10-17T01:02:54.454Z,16.85
2022-10-17T01:05:21.366Z,16.88
2022-10-17T01:07:50.859Z,15.85
2022-10-17T01:10:18.768Z,15.32
2022-10-17T01:12:57.437Z,15.27
2022-10-17T01:15:49.069Z,14.18
2022-10-17T01:18:33.615Z,15.57
2022-10-17T01:21:38.683Z,15.45
2022-10-17T01:24:24.172Z,16.17
2022-10-17T01:27:09.650Z,15.25
2022-10-17T01:29:45.462Z,14.80
2022-10-17T01:32:29.795Z,15.57
2022-10-17T01:35:12.124Z,15.20
2022-10-17T01:37:50.614Z,15.82
2022-10-17T01:40:27.061Z,15.85
2022-10-17T01:43:33.685Z,13.65
2022-10-17T01:46:10.437Z,13.57
2022-10-17T01:48:40.281Z,13.73
2022-10-17T01:51:25.314Z,15.23
2022-10-17T01:54:15.483Z,13.70
2022-10-17T01:56:44.144Z,15.20
2022-10-17T01:59:33.778Z,14.50
2022-10-17T02:02:02.075Z,13.80
2022-10-17T02:04:29.304Z,15.05
2022-10-17T02:06:56.109Z,15.25
2022-10-17T02:09:24.915Z,15.43
2022-10-17T02:12:45.523Z,14.63
2022-10-17T02:15:33.550Z,13.15
2022-10-17T02:18:36.578Z,14.90
2022-10-17T02:21:09.547Z,16.13
2022-10-17T02:23:59.552Z,15.40
2022-10-17T02:26:34.135Z,16.50
2022-10-17T02:29:00.971Z,15.55
2022-10-17T02:31:48.929Z,16.05
2022-10-17T02:34:22.441Z,14.95
2022-10-17T02:36:53.812Z,15.02
2022-10-17T02:39:23.493Z,15.60
2022-10-17T02:41:52.629Z,16.60
2022-10-17T02:44:21.140Z,15.88
2022-10-17T02:46:55.989Z,16.73
2022-10-17T02:49:31.495Z,15.63
2022-10-17T02:52:11.609Z,17.48
2022-10-17T02:54:57.180Z,14.80
2022-10-17T02:57:27.108Z,14.60
2022-10-17T02:59:55.877Z,13.77
2022-10-17T03:02:22.785Z,18.38
2022-10-17T03:04:50.872Z,16.80
2022-10-17T03:07:17.721Z,17.80
2022-10-17T03:09:44.536Z,14.98
2022-10-17T03:12:11.279Z,15.27
2022-10-17T03:14:38.085Z,14.55
2022-10-17T03:17:05.341Z,14.82
2022-10-17T03:19:32.122Z,15.10
2022-10-17T03:21:58.913Z,15.23
2022-10-17T03:24:25.737Z,14.68
2022-10-17T03:26:53.024Z,13.80
2022-10-17T03:29:19.772Z,16.10
2022-10-17T03:31:46.538Z,15.88
2022-10-17T03:34:13.373Z,14.88
2022-10-17T03:36:40.168Z,14.18
2022-10-17T03:39:06.959Z,13.90
2022-10-17T03:41:33.790Z,13.82
2022-10-17T03:44:00.577Z,14.55
2022-10-17T03:46:30.637Z,14.20
2022-10-17T03:48:57.380Z,14.75
2022-10-17T03:51:24.197Z,14.57
2022-10-17T03:53:51.167Z,11.88
2022-10-17T03:56:20.653Z,12.00
2022-10-17T03:58:47.816Z,14.45
2022-10-17T04:01:17.058Z,12.85
2022-10-17T04:03:44.564Z,14.05
2022-10-17T04:06:13.112Z,12.77
2022-10-17T04:08:40.011Z,14.93
2022-10-17T04:11:08.427Z,15.63
2022-10-17T04:13:35.912Z,12.73
2022-10-17T04:16:12.988Z,11.98
2022-10-17T04:18:39.898Z,14.35
2022-10-17T04:21:07.579Z,12.88
2022-10-17T04:23:35.258Z,13.45
2022-10-17T04:26:04.029Z,14.52
2022-10-17T04:28:32.139Z,15.13
2022-10-17T04:31:00.680Z,13.73
2022-10-17T04:33:28.478Z,12.18
2022-10-17T05:03:14.711Z,14.95
2022-10-17T05:05:42.569Z,17.40
2022-10-17T05:10:50.545Z,15.93
2022-10-17T05:16:07.094Z,16.02
2022-10-17T05:18:34.905Z,19.25
2022-10-17T05:21:04.627Z,16.58
2022-10-17T05:23:32.958Z,18.30
2022-10-17T05:26:00.245Z,22.73
2022-10-17T05:28:27.718Z,18.95
2022-10-17T05:30:54.859Z,18.85
2022-10-17T05:38:32.892Z,19.55
2022-10-17T05:57:39.815Z,17.88
2022-10-17T06:00:08.159Z,21.60
2022-10-17T06:05:05.989Z,22.10
2022-10-17T06:07:33.358Z,25.15
2022-10-17T06:18:16.783Z,17.85
2022-10-17T06:20:46.110Z,15.45
2022-10-17T06:23:14.081Z,18.13
2022-10-17T06:25:41.265Z,18.30
2022-10-17T06:28:08.630Z,16.83
2022-10-17T06:38:22.457Z,18.98
2022-10-17T06:40:50.051Z,18.13
2022-10-17T06:43:17.312Z,20.20
2022-10-17T06:53:58.340Z,17.10
2022-10-17T07:01:37.356Z,17.88
2022-10-17T07:04:05.109Z,17.05
2022-10-17T07:06:32.748Z,16.58
2022-10-17T07:09:01.053Z,17.33
2022-10-17T07:11:28.066Z,18.20
2022-10-17T07:13:54.825Z,18.20
2022-10-17T07:16:22.462Z,16.75
2022-10-17T07:18:51.120Z,19.40
2022-10-17T07:21:18.434Z,17.55
2022-10-17T07:23:45.376Z,17.17
2022-10-17T07:26:15.374Z,16.10
2022-10-17T07:28:44.136Z,15.13
2022-10-17T07:31:18.603Z,17.15
2022-10-17T07:33:48.801Z,16.17
2022-10-17T07:36:16.130Z,15.90
2022-10-17T07:38:43.373Z,16.88
2022-10-17T07:41:13.731Z,17.02
2022-10-17T07:43:43.160Z,16.75
2022-10-17T07:46:11.681Z,17.05
2022-10-17T07:48:40.128Z,16.55
2022-10-17T07:51:09.289Z,16.50
2022-10-17T07:53:41.813Z,16.02
2022-10-17T07:56:11.362Z,16.58
2022-10-17T07:58:38.932Z,16.85
2022-10-17T08:01:13.888Z,15.65
2022-10-17T08:03:45.540Z,14.98
2022-10-17T08:06:13.517Z,15.80
2022-10-17T08:08:41.495Z,15.40
2022-10-17T08:11:12.062Z,14.65
2022-10-17T08:13:40.293Z,15.88
2022-10-17T08:16:10.131Z,16.13
2022-10-17T08:18:39.087Z,17.42
2022-10-17T08:21:06.423Z,16.65
2022-10-17T08:23:33.235Z,14.48
2022-10-17T08:26:01.877Z,16.05
2022-10-17T08:28:29.512Z,14.77
2022-10-17T08:31:07.779Z,14.80
2022-10-17T08:33:34.789Z,15.15
2022-10-17T08:36:02.172Z,14.13
2022-10-17T08:38:33.248Z,14.73
2022-10-17T08:41:05.153Z,16.15
2022-10-17T08:43:51.525Z,15.32
2022-10-17T08:46:20.278Z,15.57
2022-10-17T08:48:49.528Z,15.15
2022-10-17T08:51:21.017Z,15.73
2022-10-17T08:53:51.368Z,13.90
2022-10-17T08:56:36.570Z,14.57
2022-10-17T08:59:26.900Z,13.93
2022-10-17T09:01:59.593Z,16.02
2022-10-17T09:04:35.493Z,15.30
2022-10-17T09:07:31.043Z,16.08
2022-10-17T09:10:01.001Z,14.35
2022-10-17T09:12:48.919Z,15.02
2022-10-17T09:15:36.874Z,15.25
2022-10-17T09:18:29.059Z,15.20
2022-10-17T09:21:00.733Z,15.45
2022-10-17T09:23:46.790Z,13.75
2022-10-17T09:26:14.241Z,11.63
2022-10-17T09:28:42.951Z,12.45
2022-10-17T09:31:29.220Z,13.02
2022-10-17T09:33:58.114Z,12.10
2022-10-17T09:36:29.979Z,12.10
2022-10-17T09:39:01.842Z,11.15
2022-10-17T09:41:45.258Z,12.48
2022-10-17T09:44:23.372Z,11.45
2022-10-17T09:47:31.386Z,11.77
2022-10-17T09:49:58.419Z,11.05
2022-10-17T09:52:40.220Z,10.38
2022-10-17T09:55:19.307Z,10.68
2022-10-17T09:58:07.267Z,10.77
2022-10-17T10:00:38.526Z,10.35
2022-10-17T10:03:26.023Z,10.80
2022-10-17T10:06:06.474Z,10.23
2022-10-17T10:08:36.315Z,10.65
2022-10-17T10:11:07.897Z,9.43
2022-10-17T10:13:36.408Z,9.82
2022-10-17T10:16:21.034Z,9.73
2022-10-17T10:18:50.954Z,9.52
2022-10-17T10:21:21.687Z,10.15
2022-10-17T10:24:09.574Z,10.02
2022-10-17T10:26:47.262Z,10.18
2022-10-17T10:29:50.010Z,9.95
2022-10-17T10:32:27.669Z,9.38
2022-10-17T10:34:59.120Z,10.00
2022-10-17T10:37:30.282Z,9.55
2022-10-17T10:40:03.789Z,10.48
2022-10-17T10:42:37.876Z,9.73
2022-10-17T10:45:52.572Z,9.50
2022-10-17T10:48:36.107Z,9.60
2022-10-17T10:51:09.703Z,8.40
2022-10-17T10:54:10.473Z,8.48
2022-10-17T10:56:41.056Z,9.55
2022-10-17T10:59:12.738Z,9.30
2022-10-17T11:01:54.702Z,9.68
2022-10-17T11:04:26.090Z,9.35
2022-10-17T11:06:55.996Z,8.98
2022-10-17T11:09:33.823Z,9.98
2022-10-17T11:12:17.184Z,8.55
2022-10-17T11:15:00.373Z,8.02
2022-10-17T11:17:42.462Z,7.10
2022-10-17T11:20:17.641Z,8.43
2022-10-17T11:22:48.429Z,7.75
2022-10-17T11:25:20.414Z,7.50
2022-10-17T11:27:47.215Z,7.72
2022-10-17T11:30:16.130Z,8.25
2022-10-17T11:33:00.258Z,8.25
2022-10-17T11:35:36.719Z,8.30
2022-10-17T11:38:15.438Z,8.43
2022-10-17T11:40:49.207Z,8.20
2022-10-17T11:43:26.010Z,8.50
2022-10-17T11:45:59.745Z,7.15
2022-10-17T11:48:45.410Z,6.60
2022-10-17T11:54:11.634Z,6.07
2022-10-17T11:57:06.641Z,6.18
2022-10-17T11:59:54.517Z,6.40
2022-10-17T12:02:33.728Z,6.63
2022-10-17T12:05:22.054Z,6.95
2022-10-17T12:07:53.137Z,6.20
2022-10-17T12:10:39.922Z,7.28
2022-10-17T12:13:28.381Z,7.57
2022-10-17T12:15:57.377Z,6.65
2022-10-17T12:18:29.862Z,7.43
2022-10-17T12:21:01.268Z,6.75
2022-10-17T12:23:30.671Z,7.07
2022-10-17T12:26:04.690Z,7.05
2022-10-17T12:28:33.778Z,7.32
2022-10-17T12:31:23.333Z,7.47
2022-10-17T12:33:58.950Z,5.90
2022-10-17T12:36:28.558Z,6.78
2022-10-17T12:39:01.353Z,7.20
2022-10-17T12:41:40.377Z,5.57
2022-10-17T12:44:28.735Z,5.40
2022-10-17T12:47:19.231Z,5.18
2022-10-17T12:49:54.393Z,5.05
2022-10-17T12:52:31.952Z,5.38
2022-10-17T12:55:12.209Z,5.60
2022-10-17T12:57:56.873Z,5.22
2022-10-17T13:01:11.810Z,5.50
2022-10-17T13:03:44.767Z,5.10
2022-10-17T13:06:20.619Z,5.28
2022-10-17T13:09:03.521Z,4.78
2022-10-17T13:11:33.975Z,4.80
2022-10-17T13:14:04.057Z,4.47
2022-10-17T13:16:32.854Z,4.30
2022-10-17T13:19:01.738Z,4.60
2022-10-17T13:21:29.522Z,4.35
2022-10-17T13:23:56.435Z,4.53
2022-10-17T13:26:28.958Z,4.32
2022-10-17T13:29:02.297Z,4.75
2022-10-17T13:31:37.548Z,4.53
2022-10-17T13:34:07.772Z,4.60
2022-10-17T13:36:35.580Z,4.65
2022-10-17T13:39:12.514Z,4.93
2022-10-17T13:41:42.288Z,4.63
2022-10-17T13:44:20.486Z,4.40
2022-10-17T13:46:48.119Z,4.40
2022-10-17T13:49:40.571Z,5.07
2022-10-17T13:52:17.414Z,4.78
2022-10-17T13:54:47.184Z,4.45
2022-10-17T13:57:21.559Z,4.38
2022-10-17T14:00:03.123Z,4.30
2022-10-17T14:02:35.393Z,4.80
2022-10-17T14:05:17.146Z,4.60
2022-10-17T14:08:21.830Z,4.97
2022-10-17T14:10:47.962Z,4.97
2022-10-17T14:13:25.747Z,5.30
2022-10-17T14:15:54.720Z,5.30
2022-10-17T14:18:26.909Z,5.50
2022-10-17T14:23:44.861Z,5.32
2022-10-17T14:26:21.564Z,5.97
2022-10-17T14:29:03.169Z,5.35
2022-10-17T14:31:35.581Z,6.15
2022-10-17T14:34:04.838Z,6.10
2022-10-17T14:36:38.558Z,6.00
2022-10-17T14:39:12.036Z,6.13
2022-10-17T14:41:44.964Z,6.30
2022-10-17T14:44:33.523Z,6.20
2022-10-17T14:47:30.265Z,6.55
2022-10-17T14:49:52.094Z,5.97
2022-10-17T14:52:19.254Z,6.72
2022-10-17T14:54:48.227Z,6.88
2022-10-17T14:57:38.078Z,7.55
2022-10-17T15:00:05.514Z,5.95
2022-10-17T15:02:32.547Z,7.18
2022-10-17T15:04:59.618Z,7.25
2022-10-17T15:07:26.921Z,6.95
2022-10-17T15:09:54.192Z,7.47
2022-10-17T15:12:23.559Z,7.40
2022-10-17T15:14:51.803Z,7.85
2022-10-17T15:17:27.885Z,7.00
2022-10-17T15:19:55.626Z,7.97
2022-10-17T15:22:23.799Z,7.85
2022-10-17T15:24:50.973Z,8.48
2022-10-17T15:27:20.348Z,8.77
2022-10-17T15:29:47.750Z,9.13
2022-10-17T15:32:15.413Z,9.75
2022-10-17T15:34:42.905Z,10.20
2022-10-17T15:37:25.688Z,10.45
2022-10-17T15:39:54.918Z,9.98
2022-10-17T15:42:30.057Z,10.18
2022-10-17T15:44:58.018Z,15.25
2022-10-17T15:47:31.196Z,16.05
2022-10-17T15:49:59.645Z,18.70
2022-10-17T15:52:27.597Z,16.60
2022-10-17T15:54:56.463Z,16.23
2022-10-17T15:57:29.202Z,12.13
2022-10-17T15:59:58.833Z,13.95
2022-10-17T16:02:25.663Z,13.20
2022-10-17T16:04:53.943Z,12.85
2022-10-17T16:07:21.922Z,12.18
2022-10-17T16:09:49.180Z,12.30
2022-10-17T16:12:19.221Z,10.88
2022-10-17T16:14:46.449Z,11.32
2022-10-17T16:17:15.481Z,8.77
2022-10-17T16:19:43.343Z,11.38
2022-10-17T16:22:26.571Z,10.38
2022-10-17T16:24:58.637Z,10.63
2022-10-17T16:27:26.238Z,9.93
2022-10-17T16:29:53.089Z,10.68
2022-10-17T16:32:20.028Z,8.75
2022-10-17T16:34:46.863Z,9.85
2022-10-17T16:37:13.832Z,8.48
2022-10-17T16:39:40.657Z,9.07
2022-10-17T16:42:07.843Z,8.52
2022-10-17T16:44:34.672Z,9.30
2022-10-17T16:47:02.047Z,9.27
2022-10-17T16:49:29.940Z,9.68
2022-10-17T16:51:57.283Z,9.38
2022-10-17T16:54:24.882Z,10.60
2022-10-17T16:56:51.771Z,10.10
2022-10-17T16:59:18.707Z,9.98
2022-10-17T17:01:46.075Z,9.77
2022-10-17T17:04:13.029Z,9.60
2022-10-17T17:06:40.131Z,12.02
2022-10-17T17:09:10.067Z,12.95
2022-10-17T17:11:38.361Z,13.65
2022-10-17T17:14:07.198Z,11.18
2022-10-17T17:16:35.808Z,14.35
2022-10-17T17:19:10.520Z,11.45
2022-10-17T17:21:38.068Z,12.43
2022-10-17T17:24:07.725Z,15.00
2022-10-17T17:26:39.591Z,17.58
2022-10-17T17:29:07.499Z,18.67
2022-10-17T17:31:38.539Z,18.00
2022-10-17T17:34:05.740Z,16.58
2022-10-17T17:36:36.564Z,17.65
2022-10-17T17:39:10.271Z,19.95
2022-10-17T17:41:38.467Z,20.27
2022-10-17T17:44:06.056Z,15.18
2022-10-17T17:46:33.101Z,15.70
2022-10-17T17:49:00.654Z,15.95
2022-10-17T17:51:29.364Z,17.95
2022-10-17T17:53:57.552Z,18.45
2022-10-17T17:56:27.701Z,20.55
2022-10-17T17:59:05.308Z,16.42
2022-10-17T18:01:38.308Z,18.27
2022-10-17T18:04:09.010Z,19.48
2022-10-17T18:06:39.765Z,18.13
2022-10-17T18:09:09.163Z,18.00
2022-10-17T18:11:37.413Z,21.02
2022-10-17T18:14:07.922Z,20.35
2022-10-17T18:16:37.277Z,21.92
2022-10-17T18:19:07.479Z,25.85
2022-10-17T18:21:36.294Z,29.10
2022-10-17T18:24:05.063Z,31.75
2022-10-17T18:26:33.303Z,28.35
2022-10-17T18:29:00.702Z,25.25
2022-10-17T18:31:32.192Z,26.48
2022-10-17T18:34:02.929Z,22.40
2022-10-17T18:36:30.940Z,26.25
2022-10-17T18:39:01.026Z,22.80
2022-10-17T18:41:29.799Z,21.98
2022-10-17T18:43:57.510Z,24.17
2022-10-17T18:46:27.035Z,21.90
2022-10-17T18:48:54.593Z,22.77
2022-10-17T18:51:23.728Z,20.73
2022-10-17T18:53:53.578Z,22.80
2022-10-17T18:56:23.877Z,21.33
2022-10-17T18:58:52.291Z,22.00
2022-10-17T19:01:31.954Z,18.40
2022-10-17T19:03:59.393Z,20.85
2022-10-17T19:06:32.114Z,21.55
2022-10-17T19:09:05.736Z,21.38
2022-10-17T19:11:38.844Z,23.38
2022-10-17T19:14:13.256Z,18.92
2022-10-17T19:16:44.390Z,20.48
2022-10-17T19:19:21.182Z,22.30
2022-10-17T19:21:48.881Z,21.60
2022-10-17T19:24:26.261Z,23.90
2022-10-17T19:26:54.963Z,21.52
2022-10-17T19:29:26.506Z,22.23
2022-10-17T19:34:21.099Z,20.45
2022-10-17T19:43:22.014Z,18.45
2022-10-17T19:46:03.162Z,19.23
2022-10-17T19:48:36.918Z,20.55
2022-10-17T19:51:05.644Z,19.00
2022-10-17T19:53:33.108Z,19.27
2022-10-17T19:56:04.112Z,17.70
2022-10-17T19:58:31.571Z,19.45
2022-10-17T20:01:02.791Z,19.08
2022-10-17T20:03:30.081Z,21.52
2022-10-17T20:05:57.399Z,20.27
2022-10-17T20:10:53.151Z,23.83
2022-10-17T20:13:20.745Z,21.67
2022-10-17T20:15:55.296Z,19.73
2022-10-17T20:18:22.909Z,19.10
2022-10-17T21:10:47.731Z,16.88
2022-10-17T21:13:17.562Z,17.13
